Time;durP1;ratioP1;P1;durP2;ratioP2;P2;SDS_P1;SDS_P2;PMS_P1;PMS_P2;Temp;Humidity;BMP_temperature;BMP_pressure;BME280_temperature;BME280_humidity;BME280_pressure;Samples;Min_cycle;Max_cycle;Signal;HPM_P1;HPM_P2
2021/07/09 00:02:04;;;;;;;8.80;8.00;;;23.00;64.30;;;;;;5061056;28;20190;-77
2021/07/09 00:04:31;;;;;;;8.65;7.85;;;23.00;65.20;;;;;;5060269;28;20182;-78
2021/07/09 00:07:02;;;;;;;9.13;8.32;;;23.00;64.50;;;;;;5060261;28;20154;-77
2021/07/09 00:09:32;;;;;;;9.60;8.70;;;23.00;64.40;;;;;;5060263;28;20190;-78
2021/07/09 00:11:59;;;;;;;8.90;8.10;;;23.00;64.40;;;;;;5041433;28;20251;-81
2021/07/09 00:14:30;;;;;;;9.32;8.48;;;23.00;64.50;;;;;;5057666;28;20174;-81
2021/07/09 00:17:00;;;;;;;9.32;8.43;;;23.00;64.40;;;;;;5056866;28;20243;-79
2021/07/09 00:19:26;;;;;;;9.88;8.88;;;23.00;64.40;;;;;;5039863;28;20206;-82
2021/07/09 00:21:52;;;;;;;8.48;7.68;;;23.00;64.30;;;;;;5057568;28;20216;-81
2021/07/09 00:24:19;;;;;;;9.20;8.40;;;23.00;64.30;;;;;;5056047;28;20632;-80
2021/07/09 00:26:45;;;;;;;8.93;8.13;;;23.00;64.50;;;;;;5057491;28;20236;-79
2021/07/09 00:29:11;;;;;;;8.90;8.07;;;23.10;64.50;;;;;;5056928;28;20193;-80
2021/07/09 00:31:37;;;;;;;8.88;8.07;;;23.00;64.30;;;;;;5056916;28;20160;-82
2021/07/09 00:34:05;;;;;;;9.13;8.32;;;23.10;64.50;;;;;;5056353;28;20162;-78
2021/07/09 00:36:32;;;;;;;8.80;8.00;;;23.00;64.40;;;;;;5054971;28;20151;-78
2021/07/09 00:38:58;;;;;;;9.02;8.23;;;23.00;64.50;;;;;;5054256;28;20663;-80
2021/07/09 00:41:28;;;;;;;9.50;8.60;;;23.00;64.50;;;;;;5053467;28;20178;-80
2021/07/09 00:43:53;;;;;;;9.48;8.60;;;23.00;64.50;;;;;;5052202;28;20633;-80
2021/07/09 00:46:32;;;;;;;9.20;8.40;;;23.00;64.50;;;;;;5053898;28;20164;-80
2021/07/09 00:48:58;;;;;;;9.43;8.43;;;23.00;64.50;;;;;;5053491;28;20193;-79
2021/07/09 00:51:24;;;;;;;8.85;8.00;;;23.00;64.50;;;;;;5053462;28;20636;-80
2021/07/09 00:53:50;;;;;;;9.25;8.45;;;23.00;64.50;;;;;;5062568;28;20224;-78
2021/07/09 00:56:16;;;;;;;9.27;8.48;;;23.00;64.60;;;;;;5093550;28;20186;-81
2021/07/09 00:58:42;;;;;;;9.05;8.25;;;23.00;64.50;;;;;;5093842;28;20521;-81
2021/07/09 01:01:07;;;;;;;8.93;8.13;;;23.00;64.50;;;;;;5093502;28;20259;-79
2021/07/09 01:03:34;;;;;;;9.00;8.20;;;23.00;64.50;;;;;;5092442;28;20265;-79
2021/07/09 01:06:03;;;;;;;8.60;7.80;;;23.00;64.60;;;;;;5093679;28;20164;-79
2021/07/09 01:08:31;;;;;;;8.48;7.68;;;23.00;64.50;;;;;;5092122;27;20735;-81
2021/07/09 01:10:58;;;;;;;9.20;8.40;;;23.00;64.60;;;;;;5058026;28;20627;-81
2021/07/09 01:13:25;;;;;;;9.73;8.82;;;23.00;64.60;;;;;;5057727;28;20639;-78
2021/07/09 01:15:52;;;;;;;8.75;7.95;;;23.00;64.60;;;;;;5074559;28;20176;-81
2021/07/09 01:18:18;;;;;;;9.52;8.63;;;23.00;64.70;;;;;;5074655;28;20188;-82
2021/07/09 01:20:47;;;;;;;9.02;8.15;;;23.00;64.60;;;;;;5093252;28;20184;-79
2021/07/09 01:23:16;;;;;;;9.65;8.73;;;23.10;64.80;;;;;;5074712;28;20543;-82
2021/07/09 01:25:42;;;;;;;9.00;8.20;;;22.90;64.60;;;;;;5091764;28;20189;-80
2021/07/09 01:28:10;;;;;;;9.52;8.63;;;23.00;64.70;;;;;;5092229;28;20160;-82
2021/07/09 01:30:38;;;;;;;9.63;8.73;;;23.00;64.70;;;;;;5091711;28;20188;-81
2021/07/09 01:33:04;;;;;;;9.65;8.75;;;23.00;64.70;;;;;;5074941;28;20183;-79
2021/07/09 01:35:31;;;;;;;9.43;8.57;;;23.00;64.70;;;;;;5096006;28;20514;-79
2021/07/09 01:38:06;;;;;;;9.40;8.60;;;23.00;64.70;;;;;;5078910;28;20272;-79
2021/07/09 01:40:32;;;;;;;9.07;8.27;;;23.00;64.70;;;;;;5095784;28;20215;-79
2021/07/09 01:43:00;;;;;;;9.68;8.82;;;23.00;64.80;;;;;;5096007;28;20589;-81
2021/07/09 01:45:27;;;;;;;9.18;8.38;;;22.90;64.70;;;;;;5078120;28;20197;-81
2021/07/09 01:47:53;;;;;;;8.65;7.85;;;23.00;64.90;;;;;;5078364;28;20169;-79
2021/07/09 01:50:19;;;;;;;9.38;8.48;;;22.90;64.80;;;;;;5097203;28;20176;-79
2021/07/09 01:52:45;;;;;;;9.32;8.45;;;22.90;64.90;;;;;;5095956;28;20164;-81
2021/07/09 01:55:13;;;;;;;9.40;8.60;;;22.90;65.00;;;;;;5096118;28;20235;-77
2021/07/09 01:57:40;;;;;;;9.20;8.40;;;22.90;64.90;;;;;;5078519;28;20233;-79
2021/07/09 02:00:10;;;;;;;9.52;8.65;;;22.90;64.80;;;;;;5078393;28;20217;-81
2021/07/09 02:02:38;;;;;;;9.20;8.40;;;22.90;64.80;;;;;;5095512;28;20181;-78
2021/07/09 02:05:07;;;;;;;8.45;7.75;;;22.90;64.90;;;;;;5078186;28;20185;-78
2021/07/09 02:07:34;;;;;;;9.25;8.40;;;22.90;64.90;;;;;;5097100;28;20188;-80
2021/07/09 02:10:00;;;;;;;9.77;8.88;;;22.90;64.90;;;;;;5097169;28;20168;-78
2021/07/09 02:12:27;;;;;;;9.05;8.25;;;22.90;65.00;;;;;;5095782;28;20647;-79
2021/07/09 02:14:53;;;;;;;9.77;8.88;;;22.90;65.00;;;;;;5096018;28;20156;-79
2021/07/09 02:17:21;;;;;;;9.07;8.27;;;22.90;65.00;;;;;;5096905;28;20251;-81
2021/07/09 02:19:49;;;;;;;9.63;8.73;;;22.90;65.00;;;;;;5097020;28;20177;-79
2021/07/09 02:22:15;;;;;;;9.02;8.23;;;22.90;65.00;;;;;;5096865;28;20172;-78
2021/07/09 02:24:43;;;;;;;9.70;8.80;;;22.90;65.10;;;;;;5095422;28;20287;-80
2021/07/09 02:27:09;;;;;;;9.75;8.85;;;22.90;65.10;;;;;;5078419;28;20623;-78
2021/07/09 02:29:36;;;;;;;9.27;8.48;;;22.90;65.10;;;;;;5095162;28;20636;-77
2021/07/09 02:32:03;;;;;;;10.23;9.32;;;22.90;65.10;;;;;;5096445;28;20177;-80
2021/07/09 02:34:31;;;;;;;9.57;8.68;;;22.90;65.10;;;;;;5096355;28;20156;-79
2021/07/09 02:36:57;;;;;;;9.70;8.80;;;22.90;65.10;;;;;;5078041;28;20215;-79
2021/07/09 02:39:25;;;;;;;10.00;9.05;;;22.90;65.10;;;;;;5078379;28;20224;-80
2021/07/09 02:41:53;;;;;;;9.73;8.82;;;22.90;65.10;;;;;;5095520;28;20616;-79
2021/07/09 02:44:23;;;;;;;9.73;8.82;;;22.90;65.10;;;;;;5077586;28;20590;-80
2021/07/09 02:46:51;;;;;;;9.48;8.65;;;22.90;65.10;;;;;;5077024;28;20229;-78
2021/07/09 02:49:19;;;;;;;9.48;8.57;;;22.90;65.10;;;;;;5094729;28;20188;-78
2021/07/09 02:51:46;;;;;;;9.07;8.27;;;22.90;65.10;;;;;;5077542;28;20177;-77
2021/07/09 02:54:12;;;;;;;9.43;8.50;;;22.90;65.10;;;;;;5060870;28;20224;-80
2021/07/09 02:56:39;;;;;;;9.25;8.45;;;22.90;65.20;;;;;;5095119;28;20184;-78
2021/07/09 02:59:05;;;;;;;9.68;8.77;;;22.90;65.10;;;;;;5077106;28;20213;-77
2021/07/09 03:01:31;;;;;;;9.00;8.20;;;22.90;65.10;;;;;;5096355;28;20161;-81
2021/07/09 03:03:58;;;;;;;9.50;8.60;;;22.90;65.20;;;;;;5094439;28;20161;-80
2021/07/09 03:06:28;;;;;;;9.27;8.43;;;22.90;65.20;;;;;;5096046;28;20171;-80
2021/07/09 03:08:56;;;;;;;9.90;8.90;;;22.90;65.20;;;;;;5077341;28;20177;-80
2021/07/09 03:11:26;;;;;;;9.38;8.52;;;22.90;65.20;;;;;;5076912;28;20185;-78
2021/07/09 03:13:55;;;;;;;9.40;8.50;;;22.90;65.20;;;;;;5077238;28;20229;-80
2021/07/09 03:16:24;;;;;;;9.68;8.77;;;22.90;65.10;;;;;;5060605;28;20206;-82
2021/07/09 03:18:53;;;;;;;9.55;8.65;;;22.90;65.20;;;;;;5076975;28;20181;-78
2021/07/09 03:21:21;;;;;;;9.27;8.43;;;22.90;65.10;;;;;;5076904;28;20659;-78
2021/07/09 03:23:47;;;;;;;9.00;8.20;;;22.90;65.20;;;;;;5094079;28;20195;-79
2021/07/09 03:26:13;;;;;;;9.02;8.23;;;22.90;65.20;;;;;;5094491;28;20160;-79
2021/07/09 03:28:38;;;;;;;9.00;8.20;;;22.90;65.30;;;;;;5095829;28;20161;-80
2021/07/09 03:31:05;;;;;;;10.02;9.02;;;22.90;65.30;;;;;;5095370;28;20581;-80
2021/07/09 03:33:35;;;;;;;10.07;9.15;;;22.90;65.30;;;;;;5094212;28;20244;-81
2021/07/09 03:36:03;;;;;;;9.52;8.63;;;22.90;65.40;;;;;;5060858;28;20187;-79
2021/07/09 03:38:29;;;;;;;9.18;8.38;;;22.90;65.40;;;;;;5060253;28;20198;-78
2021/07/09 03:40:55;;;;;;;9.40;8.60;;;22.90;65.40;;;;;;5095428;28;20242;-81
2021/07/09 03:43:20;;;;;;;9.63;8.73;;;22.80;65.30;;;;;;5094169;28;20196;-82
2021/07/09 03:45:48;;;;;;;9.02;8.23;;;22.90;65.40;;;;;;5095075;28;20161;-78
2021/07/09 03:48:18;;;;;;;9.48;8.63;;;22.80;65.40;;;;;;5076688;28;20263;-79
2021/07/09 03:50:47;;;;;;;8.85;8.05;;;22.90;65.40;;;;;;5076544;28;20647;-81
2021/07/09 03:53:13;;;;;;;9.50;8.60;;;22.80;65.30;;;;;;5076086;28;20222;-79
2021/07/09 03:55:40;;;;;;;9.40;8.55;;;22.90;65.40;;;;;;5095093;28;20250;-81
2021/07/09 03:58:08;;;;;;;8.85;8.05;;;22.80;65.30;;;;;;5075749;28;20207;-78
2021/07/09 04:00:36;;;;;;;8.75;7.95;;;22.90;65.40;;;;;;5059458;28;20292;-81
2021/07/09 04:03:05;;;;;;;9.13;8.32;;;22.90;65.50;;;;;;5059907;28;20192;-81
2021/07/09 04:05:32;;;;;;;9.45;8.65;;;22.80;65.40;;;;;;5059823;28;20234;-77
2021/07/09 04:08:00;;;;;;;9.80;8.90;;;22.80;65.40;;;;;;5076320;28;20185;-81
2021/07/09 04:10:26;;;;;;;9.38;8.57;;;22.90;65.40;;;;;;5075915;28;20263;-79
2021/07/09 04:12:52;;;;;;;9.38;8.48;;;22.90;65.40;;;;;;5094765;28;20167;-81
2021/07/09 04:15:19;;;;;;;9.30;8.50;;;22.90;65.30;;;;;;5094205;28;20228;-78
2021/07/09 04:17:45;;;;;;;8.05;7.35;;;22.90;65.70;;;;;;5093340;28;20435;-77
2021/07/09 04:20:12;;;;;;;9.15;8.35;;;23.00;66.00;;;;;;5094629;28;20283;-79
2021/07/09 04:22:38;;;;;;;8.10;7.40;;;23.00;65.60;;;;;;5094505;28;20638;-79
2021/07/09 04:25:08;;;;;;;8.85;8.05;;;23.00;65.80;;;;;;5093535;28;20232;-78
2021/07/09 04:27:37;;;;;;;8.55;7.70;;;23.00;65.80;;;;;;5059071;28;20631;-80
2021/07/09 04:30:07;;;;;;;8.18;7.45;;;23.00;65.80;;;;;;5075934;28;20665;-79
2021/07/09 04:32:37;;;;;;;8.32;7.60;;;23.00;65.80;;;;;;5092803;28;20180;-77
2021/07/09 04:35:06;;;;;;;8.52;7.75;;;23.10;65.60;;;;;;5058820;28;20210;-78
2021/07/09 04:37:34;;;;;;;8.40;7.70;;;23.00;65.80;;;;;;5075292;28;20198;-80
2021/07/09 04:40:03;;;;;;;8.80;8.00;;;23.00;65.80;;;;;;5075066;28;20352;-78
2021/07/09 04:42:30;;;;;;;8.20;7.40;;;23.10;66.00;;;;;;5075557;28;20168;-81
2021/07/09 04:44:55;;;;;;;7.72;7.03;;;23.00;66.00;;;;;;5092679;28;20163;-79
2021/07/09 04:47:21;;;;;;;7.97;7.28;;;23.00;66.40;;;;;;5094245;28;20247;-80
2021/07/09 04:49:51;;;;;;;7.95;7.25;;;23.10;66.40;;;;;;5093952;28;20530;-79
2021/07/09 04:52:20;;;;;;;7.07;6.47;;;23.00;66.40;;;;;;5058559;28;20177;-80
2021/07/09 04:54:48;;;;;;;7.57;6.95;;;23.00;66.60;;;;;;5058333;28;20238;-79
2021/07/09 04:57:16;;;;;;;7.18;6.57;;;23.00;66.90;;;;;;5058616;28;20181;-81
2021/07/09 04:59:41;;;;;;;7.00;6.40;;;23.00;67.20;;;;;;5091872;28;20351;-79
2021/07/09 05:02:11;;;;;;;7.28;6.68;;;22.90;67.60;;;;;;5092584;28;20612;-79
2021/07/09 05:04:37;;;;;;;6.70;6.10;;;22.90;67.80;;;;;;5075208;28;20673;-81
2021/07/09 05:07:03;;;;;;;7.00;6.40;;;22.80;68.30;;;;;;5094171;28;20161;-81
2021/07/09 05:09:29;;;;;;;6.70;6.10;;;22.80;68.60;;;;;;5091889;28;20159;-81
2021/07/09 05:11:56;;;;;;;7.05;6.45;;;22.80;69.00;;;;;;5092733;28;20161;-79
2021/07/09 05:14:23;;;;;;;6.78;6.18;;;22.80;69.20;;;;;;5058203;28;20639;-79
2021/07/09 05:16:51;;;;;;;6.82;6.13;;;22.80;69.50;;;;;;5074759;28;20659;-80
2021/07/09 05:19:18;;;;;;;6.75;6.20;;;22.70;69.60;;;;;;5074949;28;20251;-81
2021/07/09 05:21:43;;;;;;;6.63;6.03;;;22.80;69.80;;;;;;5074309;28;20191;-80
2021/07/09 05:24:12;;;;;;;7.00;6.40;;;22.70;70.00;;;;;;5092397;28;20176;-79
2021/07/09 05:26:38;;;;;;;7.03;6.43;;;22.70;71.00;;;;;;5093633;28;20592;-79
2021/07/09 05:29:04;;;;;;;7.18;6.57;;;22.70;70.40;;;;;;5092121;28;20168;-79
2021/07/09 05:31:30;;;;;;;6.72;6.13;;;22.70;70.40;;;;;;5093667;28;20164;-78
2021/07/09 05:33:55;;;;;;;6.25;5.75;;;22.70;70.50;;;;;;5093628;28;20157;-80
2021/07/09 05:36:21;;;;;;;7.13;6.43;;;22.80;70.50;;;;;;5094303;28;20156;-79
2021/07/09 05:38:47;;;;;;;6.80;6.20;;;22.80;70.50;;;;;;5095059;28;20188;-79
2021/07/09 05:41:16;;;;;;;7.05;6.45;;;22.80;70.50;;;;;;5093722;28;20192;-81
2021/07/09 05:43:43;;;;;;;6.50;5.95;;;22.80;70.40;;;;;;5094711;28;20214;-79
2021/07/09 05:46:09;;;;;;;6.43;5.93;;;22.80;70.50;;;;;;5094883;28;20160;-80
2021/07/09 05:48:35;;;;;;;6.43;5.85;;;22.80;70.40;;;;;;5076916;28;20157;-79
2021/07/09 05:51:03;;;;;;;6.50;5.90;;;22.80;70.50;;;;;;5093828;28;20211;-80
2021/07/09 05:53:30;;;;;;;6.93;6.32;;;22.90;70.40;;;;;;5075300;28;20187;-79
2021/07/09 05:55:58;;;;;;;6.90;6.20;;;22.90;70.30;;;;;;5093159;28;20290;-80
2021/07/09 05:58:25;;;;;;;6.53;5.97;;;22.90;70.40;;;;;;5093689;28;20153;-80
2021/07/09 06:00:50;;;;;;;6.90;6.30;;;22.90;70.30;;;;;;5094172;28;20181;-79
2021/07/09 06:03:16;;;;;;;6.93;6.32;;;22.80;70.30;;;;;;5094624;28;20206;-79
2021/07/09 06:05:42;;;;;;;6.82;6.22;;;22.80;70.30;;;;;;5093245;28;20159;-78
2021/07/09 06:08:07;;;;;;;6.70;6.10;;;22.80;70.20;;;;;;5093224;28;20533;-80
2021/07/09 06:10:33;;;;;;;7.22;6.55;;;22.80;70.40;;;;;;5093349;28;20569;-81
2021/07/09 06:12:59;;;;;;;7.57;6.88;;;22.80;70.30;;;;;;5075948;28;20169;-79
2021/07/09 06:15:26;;;;;;;6.88;6.28;;;22.80;70.10;;;;;;5094824;28;20149;-78
2021/07/09 06:17:51;;;;;;;7.85;7.15;;;22.80;70.30;;;;;;5094157;28;20206;-78
2021/07/09 06:20:17;;;;;;;7.03;6.43;;;22.80;70.30;;;;;;5095632;28;20188;-81
2021/07/09 06:22:46;;;;;;;7.45;6.75;;;22.80;70.40;;;;;;5097923;28;20214;-81
2021/07/09 06:25:15;;;;;;;7.00;6.40;;;22.80;70.30;;;;;;5078797;28;20207;-80
2021/07/09 06:27:43;;;;;;;7.30;6.70;;;22.90;70.00;;;;;;5062551;28;20184;-80
2021/07/09 06:30:12;;;;;;;7.15;6.53;;;22.90;69.70;;;;;;5095674;28;20181;-80
2021/07/09 06:32:37;;;;;;;7.82;7.13;;;22.90;69.80;;;;;;5061791;28;20181;-78
2021/07/09 06:35:05;;;;;;;6.90;6.35;;;22.90;69.80;;;;;;5098932;28;20164;-77
2021/07/09 06:37:31;;;;;;;7.57;6.88;;;22.90;69.60;;;;;;5097164;28;20153;-79
2021/07/09 06:39:56;;;;;;;7.15;6.55;;;22.90;69.40;;;;;;5098960;28;20204;-81
2021/07/09 06:42:22;;;;;;;7.20;6.60;;;23.00;69.20;;;;;;5100467;28;20567;-80
2021/07/09 06:44:48;;;;;;;7.38;6.78;;;23.00;69.10;;;;;;5099872;28;20619;-80
2021/07/09 06:47:14;;;;;;;7.95;7.25;;;23.10;68.90;;;;;;5098170;28;20153;-77
2021/07/09 06:49:41;;;;;;;7.72;7.10;;;23.00;68.90;;;;;;5080297;28;20184;-82
2021/07/09 06:52:07;;;;;;;7.63;6.97;;;23.00;69.00;;;;;;5077516;28;20180;-81
2021/07/09 06:54:33;;;;;;;7.95;7.25;;;23.00;69.10;;;;;;5099476;28;20235;-84
2021/07/09 06:57:00;;;;;;;7.88;7.18;;;23.00;69.00;;;;;;5095820;28;20161;-83
2021/07/09 06:59:28;;;;;;;7.28;6.57;;;23.00;68.90;;;;;;5094475;28;20231;-82
2021/07/09 07:01:56;;;;;;;7.40;6.80;;;23.00;68.70;;;;;;5077130;28;20205;-82
2021/07/09 07:04:25;;;;;;;7.68;6.95;;;23.10;68.60;;;;;;5060726;28;20180;-84
2021/07/09 07:06:52;;;;;;;7.63;6.97;;;23.10;68.60;;;;;;5093817;28;20180;-84
2021/07/09 07:09:21;;;;;;;7.07;6.47;;;23.10;68.50;;;;;;5060529;28;20212;-83
2021/07/09 07:11:48;;;;;;;7.57;6.88;;;23.20;68.40;;;;;;5060071;28;20185;-83
2021/07/09 07:14:16;;;;;;;7.93;7.22;;;23.20;68.20;;;;;;5059765;28;20639;-82
2021/07/09 07:16:44;;;;;;;7.30;6.70;;;23.20;68.30;;;;;;5060033;28;20219;-84
2021/07/09 07:19:11;;;;;;;7.65;7.03;;;23.10;68.20;;;;;;5076730;28;20205;-83
2021/07/09 07:21:39;;;;;;;7.70;7.10;;;23.20;68.20;;;;;;5060045;28;20208;-82
2021/07/09 07:24:06;;;;;;;7.95;7.28;;;23.20;68.10;;;;;;5094302;28;20161;-82
2021/07/09 07:26:34;;;;;;;7.93;7.22;;;23.20;68.30;;;;;;5059885;28;20535;-86
2021/07/09 07:29:01;;;;;;;7.47;6.72;;;23.10;68.00;;;;;;5059558;28;20211;-84
2021/07/09 07:31:29;;;;;;;7.32;6.72;;;23.20;67.90;;;;;;5059247;28;20172;-82
2021/07/09 07:33:57;;;;;;;7.55;6.95;;;23.20;68.70;;;;;;5076369;28;20192;-80
2021/07/09 07:36:24;;;;;;;7.32;6.72;;;23.30;67.70;;;;;;5076330;28;20220;-84
2021/07/09 07:38:51;;;;;;;7.70;7.00;;;23.30;67.90;;;;;;5059500;28;20176;-84
2021/07/09 07:41:19;;;;;;;7.10;6.50;;;23.20;67.80;;;;;;5059469;28;20342;-84
2021/07/09 07:43:46;;;;;;;7.82;7.13;;;23.30;67.80;;;;;;5059585;28;20267;-85
2021/07/09 07:46:14;;;;;;;11.00;8.10;;;23.30;67.80;;;;;;5076089;28;20176;-85
2021/07/09 07:48:41;;;;;;;15.15;8.27;;;23.30;67.80;;;;;;5092811;28;20176;-85
2021/07/09 07:51:08;;;;;;;7.97;7.28;;;23.30;67.60;;;;;;5059092;28;20188;-83
2021/07/09 07:53:34;;;;;;;7.75;7.05;;;23.30;67.40;;;;;;5075474;28;20267;-83
2021/07/09 07:56:02;;;;;;;8.82;7.10;;;23.30;67.60;;;;;;5094416;28;20160;-81
2021/07/09 07:58:29;;;;;;;8.05;7.25;;;23.40;67.60;;;;;;5059612;28;20684;-83
2021/07/09 08:00:58;;;;;;;7.30;6.60;;;23.20;67.50;;;;;;5058845;28;20213;-82
2021/07/09 08:03:24;;;;;;;7.35;6.65;;;23.20;67.50;;;;;;5076031;28;20185;-83
2021/07/09 08:05:51;;;;;;;7.55;6.85;;;23.30;67.50;;;;;;5075977;28;20176;-82
2021/07/09 08:08:18;;;;;;;7.68;6.97;;;23.30;67.50;;;;;;5075949;28;20185;-82
2021/07/09 08:10:45;;;;;;;8.07;7.38;;;23.40;67.40;;;;;;5076049;28;20263;-82
2021/07/09 08:13:12;;;;;;;7.88;7.18;;;23.40;68.30;;;;;;5075596;28;20180;-85
2021/07/09 08:15:39;;;;;;;7.53;6.82;;;23.30;67.30;;;;;;5058794;28;20275;-83
2021/07/09 08:18:06;;;;;;;7.47;6.78;;;23.30;67.40;;;;;;5059056;28;20178;-81
2021/07/09 08:20:34;;;;;;;7.38;6.78;;;23.40;67.40;;;;;;5092377;28;20295;-84
2021/07/09 08:23:02;;;;;;;7.30;6.70;;;23.30;67.10;;;;;;5076505;28;20188;-82
2021/07/09 08:25:28;;;;;;;7.53;6.82;;;23.40;67.20;;;;;;5075882;28;20198;-83
2021/07/09 08:27:55;;;;;;;7.40;6.80;;;23.30;67.10;;;;;;5075356;28;20177;-84
2021/07/09 08:30:22;;;;;;;7.80;7.10;;;23.40;67.20;;;;;;5058461;28;20712;-82
2021/07/09 08:32:48;;;;;;;7.07;6.47;;;23.40;67.20;;;;;;5094439;28;20177;-80
2021/07/09 08:35:14;;;;;;;7.13;6.53;;;23.30;67.10;;;;;;5093108;28;20624;-80
2021/07/09 08:37:42;;;;;;;8.10;7.30;;;23.40;67.20;;;;;;5093407;28;20144;-83
2021/07/09 08:40:08;;;;;;;7.63;6.93;;;23.30;67.30;;;;;;5092770;28;20291;-81
2021/07/09 08:42:34;;;;;;;7.38;6.78;;;23.40;67.40;;;;;;5092831;28;20179;-80
2021/07/09 08:45:00;;;;;;;7.65;6.95;;;23.30;67.20;;;;;;5075973;28;20252;-81
2021/07/09 08:47:28;;;;;;;7.65;6.95;;;23.40;67.10;;;;;;5076029;28;20624;-82
2021/07/09 08:49:54;;;;;;;7.80;7.10;;;23.40;67.10;;;;;;5092547;28;20180;-83
2021/07/09 08:52:21;;;;;;;7.80;7.10;;;23.40;67.10;;;;;;5094322;28;20160;-83
2021/07/09 08:54:47;;;;;;;7.32;6.72;;;23.40;67.00;;;;;;5093871;28;20232;-81
2021/07/09 08:57:15;;;;;;;8.00;7.20;;;23.40;66.90;;;;;;5093792;28;20153;-79
2021/07/09 08:59:42;;;;;;;7.28;6.60;;;23.40;67.00;;;;;;5093587;28;20528;-84
2021/07/09 09:02:10;;;;;;;7.82;7.13;;;23.40;66.90;;;;;;5074963;28;20267;-85
2021/07/09 09:04:38;;;;;;;7.47;6.78;;;23.40;66.90;;;;;;5075256;28;20181;-85
2021/07/09 09:07:07;;;;;;;7.20;6.55;;;23.40;66.80;;;;;;5075385;28;20176;-81
2021/07/09 09:09:36;;;;;;;7.70;7.00;;;23.50;66.70;;;;;;5075321;28;20647;-81
2021/07/09 09:12:15;;;;;;;7.82;7.13;;;23.50;66.60;;;;;;5074947;28;20212;-80
2021/07/09 09:14:43;;;;;;;7.38;6.78;;;23.40;66.90;;;;;;5075120;28;20181;-81
2021/07/09 09:17:25;;;;;;;7.57;6.63;;;23.40;66.60;;;;;;5075190;28;20726;-81
2021/07/09 09:20:15;;;;;;;7.93;7.20;;;23.50;66.60;;;;;;5058586;28;20223;-80
2021/07/09 09:22:56;;;;;;;7.50;6.80;;;23.40;66.30;;;;;;5109092;28;20240;-80
2021/07/09 09:25:25;;;;;;;7.47;6.88;;;23.50;66.20;;;;;;5076096;28;20600;-80
2021/07/09 09:28:08;;;;;;;7.05;6.45;;;23.60;66.50;;;;;;5074593;28;20643;-83
2021/07/09 09:30:34;;;;;;;7.13;6.43;;;23.60;66.10;;;;;;5092082;28;20172;-80
2021/07/09 09:33:03;;;;;;;7.25;6.65;;;23.50;66.00;;;;;;5075373;28;20211;-81
2021/07/09 09:35:31;;;;;;;7.72;7.03;;;23.60;66.00;;;;;;5092044;28;20206;-82
2021/07/09 09:37:59;;;;;;;7.13;6.53;;;23.50;66.10;;;;;;5075422;28;20534;-83
2021/07/09 09:40:26;;;;;;;7.75;6.40;;;23.50;66.10;;;;;;5092585;28;20180;-82
2021/07/09 09:42:52;;;;;;;7.55;6.85;;;23.50;66.10;;;;;;5075771;28;20620;-81
2021/07/09 09:45:19;;;;;;;7.32;6.72;;;23.50;66.30;;;;;;5075152;28;20208;-83
2021/07/09 09:47:45;;;;;;;7.68;6.97;;;23.50;66.30;;;;;;5091876;28;20153;-81
2021/07/09 09:50:14;;;;;;;7.72;7.03;;;23.50;66.40;;;;;;5074949;28;20539;-80
2021/07/09 09:52:42;;;;;;;7.00;6.40;;;23.40;66.20;;;;;;5075161;28;20168;-79
2021/07/09 09:55:26;;;;;;;7.35;6.65;;;23.40;66.40;;;;;;5093333;28;20208;-82
2021/07/09 09:58:08;;;;;;;7.25;6.65;;;23.40;66.10;;;;;;5096056;28;20164;-80
2021/07/09 10:00:35;;;;;;;7.32;6.63;;;23.50;66.00;;;;;;5095871;28;20187;-78
2021/07/09 10:03:04;;;;;;;7.30;6.70;;;23.40;66.10;;;;;;5097269;28;20241;-84
2021/07/09 10:05:31;;;;;;;7.65;6.95;;;23.60;65.90;;;;;;5096173;28;20157;-81
2021/07/09 10:07:56;;;;;;;7.57;6.88;;;23.60;66.10;;;;;;5112820;28;20164;-81
2021/07/09 10:10:22;;;;;;;7.45;6.75;;;23.60;66.10;;;;;;5096806;28;20210;-84
2021/07/09 10:12:49;;;;;;;8.18;7.47;;;23.60;65.80;;;;;;5095970;28;20176;-79
2021/07/09 10:15:16;;;;;;;7.53;6.85;;;23.50;66.00;;;;;;5078780;28;20256;-84
2021/07/09 10:17:41;;;;;;;7.40;6.80;;;23.60;65.80;;;;;;5096585;28;20153;-85
2021/07/09 10:20:07;;;;;;;7.10;6.50;;;23.60;65.90;;;;;;5096186;28;20249;-82
2021/07/09 10:22:33;;;;;;;7.20;6.60;;;23.50;65.50;;;;;;5095905;28;20248;-84
2021/07/09 10:24:59;;;;;;;7.97;7.28;;;23.60;65.80;;;;;;5078677;28;20204;-84
2021/07/09 10:27:25;;;;;;;7.70;7.00;;;23.60;65.70;;;;;;5095167;28;20149;-83
2021/07/09 10:29:54;;;;;;;7.70;6.85;;;23.60;65.60;;;;;;5095387;28;20165;-80
2021/07/09 10:32:36;;;;;;;7.38;6.68;;;23.60;65.20;;;;;;5078886;28;20165;-83
2021/07/09 10:35:03;;;;;;;7.28;6.65;;;23.60;65.50;;;;;;5112186;27;20157;-81
2021/07/09 10:37:29;;;;;;;6.90;6.30;;;23.70;65.50;;;;;;5078367;28;20524;-82
2021/07/09 10:40:09;;;;;;;7.45;6.75;;;23.70;64.90;;;;;;5094958;28;20187;-84
2021/07/09 10:42:39;;;;;;;7.13;6.53;;;23.70;65.20;;;;;;5095307;28;20161;-82
2021/07/09 10:45:16;;;;;;;7.00;6.40;;;23.70;65.30;;;;;;5095004;28;20173;-79
2021/07/09 10:47:58;;;;;;;6.90;6.30;;;23.70;65.40;;;;;;5094959;28;20155;-83
2021/07/09 10:50:43;;;;;;;7.03;6.43;;;23.70;65.50;;;;;;5095495;28;20152;-83
2021/07/09 10:53:30;;;;;;;7.85;7.15;;;23.70;65.50;;;;;;5095787;28;20157;-81
2021/07/09 10:56:08;;;;;;;7.32;6.68;;;23.50;65.70;;;;;;5094817;28;20173;-83
2021/07/09 10:58:40;;;;;;;6.68;6.07;;;23.60;65.40;;;;;;5094691;28;20214;-80
2021/07/09 11:01:12;;;;;;;6.78;6.20;;;23.70;64.90;;;;;;5061595;28;20265;-81
2021/07/09 11:04:10;;;;;;;6.82;6.22;;;23.70;64.90;;;;;;5077670;27;20180;-83
2021/07/09 11:06:41;;;;;;;7.70;7.00;;;23.70;65.00;;;;;;5133255;27;20515;-83
2021/07/09 11:09:12;;;;;;;7.22;6.63;;;23.60;65.40;;;;;;5066556;28;20200;-84
2021/07/09 11:11:47;;;;;;;6.80;6.20;;;23.60;65.30;;;;;;5101322;28;20146;-81
2021/07/09 11:14:37;;;;;;;7.40;6.70;;;23.60;65.20;;;;;;5098746;28;20156;-84
2021/07/09 11:17:21;;;;;;;6.68;6.10;;;23.60;65.50;;;;;;5099518;28;20187;-83
2021/07/09 11:19:49;;;;;;;7.43;6.72;;;23.70;64.70;;;;;;5098346;28;20184;-79
2021/07/09 11:22:22;;;;;;;6.82;6.22;;;23.70;65.40;;;;;;5098221;28;20327;-84
2021/07/09 11:24:51;;;;;;;6.43;5.93;;;23.60;64.90;;;;;;5099174;28;20164;-83
2021/07/09 11:27:24;;;;;;;6.95;6.35;;;23.70;64.60;;;;;;5081203;28;20164;-82
2021/07/09 11:29:59;;;;;;;7.07;6.38;;;23.70;64.90;;;;;;5097770;27;20192;-80
2021/07/09 11:32:28;;;;;;;6.88;6.25;;;23.60;65.20;;;;;;5065229;28;20187;-80
2021/07/09 11:34:58;;;;;;;7.78;7.07;;;23.70;64.70;;;;;;5063144;28;20234;-79
2021/07/09 11:37:32;;;;;;;7.07;6.45;;;23.60;64.90;;;;;;5063382;28;20191;-83
2021/07/09 11:40:06;;;;;;;6.90;6.30;;;23.70;65.00;;;;;;5079748;28;20319;-80
2021/07/09 11:42:37;;;;;;;7.28;6.65;;;23.70;64.70;;;;;;5080853;28;20215;-78
2021/07/09 11:45:08;;;;;;;7.35;6.65;;;23.70;64.60;;;;;;5097134;27;20276;-79
2021/07/09 11:47:40;;;;;;;6.60;6.00;;;23.70;64.10;;;;;;5080417;28;20332;-80
2021/07/09 11:50:20;;;;;;;7.03;6.43;;;23.70;64.50;;;;;;5080513;28;20206;-81
2021/07/09 11:52:50;;;;;;;7.00;6.40;;;23.60;64.50;;;;;;5079950;28;20180;-82
2021/07/09 11:55:18;;;;;;;7.22;6.63;;;23.70;64.30;;;;;;5097454;28;20226;-84
2021/07/09 11:57:44;;;;;;;7.18;6.47;;;23.60;64.10;;;;;;5098445;28;20153;-80
2021/07/09 12:00:12;;;;;;;7.30;6.63;;;23.70;63.80;;;;;;5080641;28;20200;-85
2021/07/09 12:02:37;;;;;;;7.63;7.00;;;23.70;63.40;;;;;;5097657;28;20164;-79
2021/07/09 12:05:06;;;;;;;6.68;6.13;;;23.70;63.60;;;;;;5098278;28;20153;-82
2021/07/09 12:07:37;;;;;;;7.15;6.55;;;23.70;63.40;;;;;;5097434;28;20168;-81
2021/07/09 12:10:07;;;;;;;6.90;6.30;;;23.70;63.20;;;;;;5079912;28;20167;-80
2021/07/09 12:12:58;;;;;;;7.70;7.00;;;23.80;62.80;;;;;;5098130;28;20214;-82
2021/07/09 12:15:26;;;;;;;6.70;6.00;;;23.70;63.70;;;;;;5097247;28;20281;-79
2021/07/09 12:17:56;;;;;;;6.75;6.15;;;23.70;63.90;;;;;;5096855;28;20164;-80
2021/07/09 12:20:26;;;;;;;7.47;6.82;;;23.80;63.20;;;;;;5113393;28;20192;-81
2021/07/09 12:23:00;;;;;;;6.90;6.38;;;23.70;64.50;;;;;;5080078;28;20168;-79
2021/07/09 12:25:27;;;;;;;6.90;6.30;;;23.70;64.50;;;;;;5097086;28;20619;-79
2021/07/09 12:27:55;;;;;;;7.03;6.43;;;23.70;63.30;;;;;;5097150;28;20149;-81
2021/07/09 12:30:24;;;;;;;6.88;6.28;;;23.70;63.90;;;;;;5098896;28;20165;-81
2021/07/09 12:32:56;;;;;;;6.68;6.10;;;23.70;63.90;;;;;;5097152;28;20173;-84
2021/07/09 12:35:22;;;;;;;7.10;6.50;;;23.70;63.30;;;;;;5096799;28;20153;-85
2021/07/09 12:37:58;;;;;;;7.30;6.70;;;23.70;64.60;;;;;;5096573;28;20549;-80
2021/07/09 12:40:35;;;;;;;7.35;6.65;;;23.60;64.30;;;;;;5097321;27;20215;-79
2021/07/09 12:43:17;;;;;;;6.18;5.68;;;23.60;64.00;;;;;;5048411;28;20180;-79
2021/07/09 12:45:52;;;;;;;7.20;6.60;;;23.80;63.30;;;;;;5062802;28;20693;-80
2021/07/09 12:48:30;;;;;;;5.97;5.47;;;23.80;63.70;;;;;;5065527;28;20176;-82
2021/07/09 12:50:56;;;;;;;7.13;6.53;;;23.80;63.40;;;;;;5096353;28;20190;-82
2021/07/09 12:53:22;;;;;;;6.90;6.30;;;23.80;63.30;;;;;;5045093;28;20240;-82